KWRL

Details ICAO KWRL (WRL)
Name WORLAND MUNI
Region United States
Timezone America/Denver (UTC-7.0)
Plans Departing 8
Arriving 4
Stats Elevation 4,227 ft / 1,288 m (AMSL)
Location 43.963392° -107.949029°
Runways 3
Magnetic Variation 10.162° E
Sunrise 2017-12-14 14:40:22 UTC / 2017-12-14 07:40:22 Local
Sunset 2017-12-14 23:35:40 UTC / 2017-12-14 16:35:40 Local
Advertisement - Login to hide

Runways

ID Width Length Bearing (true) Bearing (mag) Surface Threshold Offset Overrun Length
04 59 ft / 18 m 2,317 ft / 706 m 56.40° 46.24° Dirt 0 ft / 0 m 0 ft / 0 m
10 59 ft / 18 m 2,860 ft / 872 m 118.50° 108.34° Dirt 0 ft / 0 m 0 ft / 0 m
16 98 ft / 30 m 7,013 ft / 2,138 m 175.10° 164.94° Asphalt 0 ft / 0 m 0 ft / 0 m
22 59 ft / 18 m 2,317 ft / 706 m 236.40° 226.24° Dirt 0 ft / 0 m 0 ft / 0 m
28 59 ft / 18 m 2,860 ft / 872 m 298.50° 288.34° Dirt 0 ft / 0 m 0 ft / 0 m
34 98 ft / 30 m 7,013 ft / 2,138 m 355.10° 344.94° Asphalt 0 ft / 0 m 0 ft / 0 m

Map

Weather


0- 5 10 15 20 25 30 35+ Temperature / ° C

Clouds and Precipitation
Forecast for 2017-12-14 18:00 UTC. Updated 2 hours ago

Ground ~20,000 ft ~40,000 ft Winds

METAR

KWRL 141653Z AUTO 24006KT 10SM CLR 00/M04 A3033 RMK AO2 SLP302 T00001039

TAF

KWRL 141139Z 1412/1512 29005KT P6SM SCT050 FM141800 33008KT P6SM FEW200 FM150000 15006KT P6SM SCT200

Frequencies

Recorded 135.47 MHz ASOS
Unicom 123.05 MHz CTAF/UNICOM
Warning: Do not use this data for real-world aviation or navigation. No guarantee of current accuracy is given.